Flag for Turkey

Past Weather in 36°37'23.0"N, 29°06'17.7"E, Turkey — Yesterday and Last 2 Weeks

Currently: 82 °F. Passing clouds. (Weather station: Dalaman, Turkey). See more current weather

Past Weather in 36°37'23.0"N, 29°06'17.7"E — Graph

°F

36°37'23.0"N, 29°06'17.7"E Temperature Yesterday

Maximum temperature yesterday: 84 °F (at 12:50 pm)
Minimum temperature yesterday: 63 °F (at 6:20 am)
Average temperature yesterday: 76 °F

High & Low Weather Summary for the Past Weeks

 TemperatureHumidityPressure
High90 °F (May 22, 4:20 pm)100% (May 12, 5:50 am)30.09 "Hg (May 12, 5:50 am)
Low55 °F (May 11, 5:50 am)17% (May 10, 3:50 pm)29.56 "Hg (May 10, 3:50 pm)
Average71 °F63%29.86 "Hg
* Reported May 10 10:20 am — May 25 10:20 am, 36°37'23.0"N, 29°06'17.7"E. Weather by CustomWeather, © 2024

Note: Actual official high and low records may vary slightly from our data, if they occured in-between our weather recording intervals... More about our weather records

36°37'23.0"N, 29°06'17.7"E Weather History for the Previous 24 Hours

Scroll right to see more
 ConditionsComfort  
Time TempWeatherWind HumidityBarometerVisibility
10:20 am
Sat, May 25
82 °FSunny.18 mph21%29.80 "Hg10 mi
9:50 am81 °FSunny.18 mph26%29.80 "Hg10 mi
9:20 am79 °FSunny.17 mph26%29.80 "Hg10 mi
8:50 am79 °FSunny.18 mph28%29.80 "Hg10 mi
8:20 am77 °FPassing clouds.20 mph30%29.80 "HgN/A
7:50 am75 °FPassing clouds.18 mph31%29.80 "HgN/A
7:20 am73 °FSunny.20 mph33%29.80 "Hg10 mi
6:50 am72 °FSunny.10 mph36%29.80 "Hg10 mi
6:20 am70 °FSunny.13 mph38%29.80 "Hg10 mi
5:50 am70 °FPassing clouds.10 mph38%29.80 "HgN/A
5:20 am70 °FClear.12 mph38%29.80 "Hg10 mi
4:50 am72 °FClear.13 mph36%29.80 "Hg10 mi
4:20 am72 °FClear.14 mph38%29.80 "Hg10 mi
3:50 am73 °FClear.15 mph33%29.80 "Hg10 mi
2:50 am73 °FClear.16 mph36%29.83 "Hg10 mi
2:20 am73 °FClear.15 mph36%29.83 "Hg10 mi
1:50 am73 °FClear.17 mph36%29.83 "Hg10 mi
1:20 am75 °FClear.16 mph34%29.83 "Hg10 mi
12:50 am75 °FClear.15 mph34%29.83 "Hg10 mi
12:20 am72 °FClear.10 mph41%29.83 "Hg10 mi
11:50 pm
Fri, May 24
70 °FPassing clouds.8 mph46%29.83 "HgN/A
11:20 pm75 °FClear.10 mph39%29.83 "Hg10 mi
10:50 pm70 °FClear.7 mph46%29.83 "Hg10 mi
10:20 pm75 °FPassing clouds.7 mph36%29.83 "HgN/A
9:50 pm72 °FPassing clouds.7 mph47%29.83 "HgN/A
9:20 pm75 °FPassing clouds.5 mph39%29.83 "HgN/A
8:50 pm77 °FPassing clouds.7 mph36%29.83 "HgN/A
8:20 pm73 °FPassing clouds.7 mph41%29.83 "HgN/A
7:50 pm81 °FPassing clouds.10 mph32%29.83 "HgN/A
7:20 pm82 °FPassing clouds.12 mph30%29.80 "HgN/A
6:50 pm82 °FPassing clouds.16 mph30%29.80 "HgN/A
6:20 pm82 °FPassing clouds.16 mph28%29.80 "HgN/A
5:50 pm84 °FPassing clouds.18 mph29%29.80 "HgN/A
5:20 pm84 °FPassing clouds.21 mph29%29.80 "HgN/A
4:50 pm82 °FPassing clouds.17 mph30%29.80 "HgN/A
4:20 pm84 °FPassing clouds.22 mph29%29.80 "HgN/A
3:50 pm84 °FPassing clouds.22 mph29%29.80 "HgN/A
3:20 pm84 °FPassing clouds.21 mph29%29.80 "HgN/A
2:50 pm84 °FPassing clouds.20 mph29%29.80 "HgN/A
1:50 pm84 °FPassing clouds.21 mph27%29.80 "HgN/A
1:20 pm84 °FPassing clouds.21 mph27%29.80 "HgN/A
12:50 pm84 °FPassing clouds.20 mph27%29.80 "HgN/A
12:20 pm82 °FPassing clouds.22 mph28%29.80 "HgN/A
Weather by CustomWeather, © 2024

See weather overview